sensor_id;sensor_type;location;lat;lon;timestamp;P1;durP1;ratioP1;P2;durP2;ratioP2
33786;SDS011;29742;51.540;9.358;2023-09-19T00:02:18;1.00;;;0.30;;
33786;SDS011;29742;51.540;9.358;2023-09-19T00:07:18;0.17;;;0.10;;
33786;SDS011;29742;51.540;9.358;2023-09-19T00:12:19;0.47;;;0.20;;
33786;SDS011;29742;51.540;9.358;2023-09-19T00:17:19;0.55;;;0.30;;
33786;SDS011;29742;51.540;9.358;2023-09-19T00:22:19;0.65;;;0.20;;
33786;SDS011;29742;51.540;9.358;2023-09-19T00:27:20;0.90;;;0.28;;
33786;SDS011;29742;51.540;9.358;2023-09-19T00:32:20;0.50;;;0.20;;
33786;SDS011;29742;51.540;9.358;2023-09-19T00:37:21;0.20;;;0.10;;
33786;SDS011;29742;51.540;9.358;2023-09-19T00:42:21;0.10;;;0.10;;
33786;SDS011;29742;51.540;9.358;2023-09-19T00:47:22;0.43;;;0.20;;
33786;SDS011;29742;51.540;9.358;2023-09-19T00:52:23;0.57;;;0.25;;
33786;SDS011;29742;51.540;9.358;2023-09-19T00:57:23;0.10;;;0.10;;
33786;SDS011;29742;51.540;9.358;2023-09-19T01:02:23;0.28;;;0.20;;
33786;SDS011;29742;51.540;9.358;2023-09-19T01:07:24;0.65;;;0.25;;
33786;SDS011;29742;51.540;9.358;2023-09-19T01:12:33;1.40;;;0.30;;
33786;SDS011;29742;51.540;9.358;2023-09-19T01:17:57;0.10;;;0.10;;
33786;SDS011;29742;51.540;9.358;2023-09-19T01:29:01;0.22;;;0.10;;
33786;SDS011;29742;51.540;9.358;2023-09-19T01:34:08;0.15;;;0.05;;
33786;SDS011;29742;51.540;9.358;2023-09-19T01:39:09;0.20;;;0.17;;
33786;SDS011;29742;51.540;9.358;2023-09-19T01:44:11;0.68;;;0.30;;
33786;SDS011;29742;51.540;9.358;2023-09-19T01:49:36;1.02;;;0.10;;
33786;SDS011;29742;51.540;9.358;2023-09-19T01:55:02;0.88;;;0.20;;
33786;SDS011;29742;51.540;9.358;2023-09-19T02:00:06;0.50;;;0.30;;
33786;SDS011;29742;51.540;9.358;2023-09-19T02:05:08;0.85;;;0.22;;
33786;SDS011;29742;51.540;9.358;2023-09-19T02:10:08;0.30;;;0.15;;
33786;SDS011;29742;51.540;9.358;2023-09-19T02:15:12;0.60;;;0.30;;
33786;SDS011;29742;51.540;9.358;2023-09-19T02:20:12;0.30;;;0.30;;
33786;SDS011;29742;51.540;9.358;2023-09-19T02:25:14;0.30;;;0.30;;
33786;SDS011;29742;51.540;9.358;2023-09-19T02:30:15;0.28;;;0.28;;
33786;SDS011;29742;51.540;9.358;2023-09-19T02:35:16;0.30;;;0.30;;
33786;SDS011;29742;51.540;9.358;2023-09-19T02:40:16;0.57;;;0.30;;
33786;SDS011;29742;51.540;9.358;2023-09-19T02:45:19;0.63;;;0.30;;
33786;SDS011;29742;51.540;9.358;2023-09-19T02:50:20;1.77;;;0.13;;
33786;SDS011;29742;51.540;9.358;2023-09-19T02:55:20;1.67;;;0.28;;
33786;SDS011;29742;51.540;9.358;2023-09-19T03:00:22;0.50;;;0.30;;
33786;SDS011;29742;51.540;9.358;2023-09-19T03:05:23;0.30;;;0.25;;
33786;SDS011;29742;51.540;9.358;2023-09-19T03:10:24;0.30;;;0.30;;
33786;SDS011;29742;51.540;9.358;2023-09-19T03:15:25;1.40;;;0.55;;
33786;SDS011;29742;51.540;9.358;2023-09-19T03:20:25;0.98;;;0.57;;
33786;SDS011;29742;51.540;9.358;2023-09-19T03:25:27;1.08;;;0.65;;
33786;SDS011;29742;51.540;9.358;2023-09-19T03:30:28;0.82;;;0.40;;
33786;SDS011;29742;51.540;9.358;2023-09-19T03:35:29;0.47;;;0.47;;
33786;SDS011;29742;51.540;9.358;2023-09-19T03:40:29;0.93;;;0.45;;
33786;SDS011;29742;51.540;9.358;2023-09-19T03:45:30;1.23;;;0.70;;
33786;SDS011;29742;51.540;9.358;2023-09-19T03:50:30;0.63;;;0.63;;
33786;SDS011;29742;51.540;9.358;2023-09-19T03:55:30;0.95;;;0.50;;
33786;SDS011;29742;51.540;9.358;2023-09-19T04:00:31;0.30;;;0.30;;
33786;SDS011;29742;51.540;9.358;2023-09-19T04:05:32;0.45;;;0.35;;
33786;SDS011;29742;51.540;9.358;2023-09-19T04:10:33;0.50;;;0.22;;
33786;SDS011;29742;51.540;9.358;2023-09-19T04:15:34;0.70;;;0.50;;
33786;SDS011;29742;51.540;9.358;2023-09-19T04:20:34;0.32;;;0.32;;
33786;SDS011;29742;51.540;9.358;2023-09-19T04:25:34;0.50;;;0.50;;
33786;SDS011;29742;51.540;9.358;2023-09-19T04:30:35;0.47;;;0.30;;
33786;SDS011;29742;51.540;9.358;2023-09-19T04:35:35;0.50;;;0.50;;
33786;SDS011;29742;51.540;9.358;2023-09-19T04:40:35;0.82;;;0.38;;
33786;SDS011;29742;51.540;9.358;2023-09-19T04:45:38;0.40;;;0.40;;
33786;SDS011;29742;51.540;9.358;2023-09-19T04:50:40;0.52;;;0.40;;
33786;SDS011;29742;51.540;9.358;2023-09-19T04:55:40;0.40;;;0.40;;
33786;SDS011;29742;51.540;9.358;2023-09-19T05:00:41;0.40;;;0.38;;
33786;SDS011;29742;51.540;9.358;2023-09-19T05:05:41;1.17;;;0.70;;
33786;SDS011;29742;51.540;9.358;2023-09-19T05:10:42;0.40;;;0.35;;
33786;SDS011;29742;51.540;9.358;2023-09-19T05:15:43;1.27;;;0.57;;
33786;SDS011;29742;51.540;9.358;2023-09-19T05:20:43;1.40;;;0.32;;
33786;SDS011;29742;51.540;9.358;2023-09-19T05:25:43;0.43;;;0.43;;
33786;SDS011;29742;51.540;9.358;2023-09-19T05:30:44;1.13;;;0.40;;
33786;SDS011;29742;51.540;9.358;2023-09-19T05:35:44;0.30;;;0.30;;
33786;SDS011;29742;51.540;9.358;2023-09-19T05:40:47;1.27;;;0.50;;
33786;SDS011;29742;51.540;9.358;2023-09-19T05:45:47;0.90;;;0.45;;
33786;SDS011;29742;51.540;9.358;2023-09-19T05:50:48;0.40;;;0.30;;
33786;SDS011;29742;51.540;9.358;2023-09-19T05:55:51;0.60;;;0.60;;
33786;SDS011;29742;51.540;9.358;2023-09-19T06:00:53;0.47;;;0.40;;
33786;SDS011;29742;51.540;9.358;2023-09-19T06:05:53;0.80;;;0.40;;
33786;SDS011;29742;51.540;9.358;2023-09-19T06:10:57;0.40;;;0.40;;
33786;SDS011;29742;51.540;9.358;2023-09-19T06:15:57;0.25;;;0.25;;
33786;SDS011;29742;51.540;9.358;2023-09-19T06:20:59;0.40;;;0.35;;
33786;SDS011;29742;51.540;9.358;2023-09-19T06:26:00;1.17;;;0.65;;
33786;SDS011;29742;51.540;9.358;2023-09-19T06:31:03;0.60;;;0.40;;
33786;SDS011;29742;51.540;9.358;2023-09-19T06:36:09;0.57;;;0.32;;
33786;SDS011;29742;51.540;9.358;2023-09-19T06:41:10;0.95;;;0.55;;
33786;SDS011;29742;51.540;9.358;2023-09-19T06:46:11;1.08;;;0.55;;
33786;SDS011;29742;51.540;9.358;2023-09-19T06:51:12;0.73;;;0.40;;
33786;SDS011;29742;51.540;9.358;2023-09-19T06:56:15;1.27;;;0.60;;
33786;SDS011;29742;51.540;9.358;2023-09-19T07:01:15;1.33;;;0.70;;
33786;SDS011;29742;51.540;9.358;2023-09-19T07:06:16;0.82;;;0.45;;
33786;SDS011;29742;51.540;9.358;2023-09-19T07:11:17;0.60;;;0.43;;
33786;SDS011;29742;51.540;9.358;2023-09-19T07:16:18;1.98;;;1.05;;
33786;SDS011;29742;51.540;9.358;2023-09-19T07:21:29;0.80;;;0.47;;
33786;SDS011;29742;51.540;9.358;2023-09-19T07:26:30;1.10;;;0.60;;
33786;SDS011;29742;51.540;9.358;2023-09-19T07:31:31;1.02;;;0.43;;
33786;SDS011;29742;51.540;9.358;2023-09-19T07:36:31;1.42;;;0.88;;
33786;SDS011;29742;51.540;9.358;2023-09-19T07:41:32;0.95;;;0.82;;
33786;SDS011;29742;51.540;9.358;2023-09-19T07:46:33;1.27;;;0.70;;
33786;SDS011;29742;51.540;9.358;2023-09-19T07:51:34;0.43;;;0.32;;
33786;SDS011;29742;51.540;9.358;2023-09-19T07:56:34;0.98;;;0.40;;
33786;SDS011;29742;51.540;9.358;2023-09-19T08:01:35;0.50;;;0.30;;
33786;SDS011;29742;51.540;9.358;2023-09-19T08:06:35;0.38;;;0.38;;
33786;SDS011;29742;51.540;9.358;2023-09-19T08:11:38;0.30;;;0.20;;
33786;SDS011;29742;51.540;9.358;2023-09-19T08:16:39;0.52;;;0.30;;
33786;SDS011;29742;51.540;9.358;2023-09-19T08:21:39;0.20;;;0.20;;
33786;SDS011;29742;51.540;9.358;2023-09-19T08:26:40;0.30;;;0.25;;
33786;SDS011;29742;51.540;9.358;2023-09-19T08:31:40;0.85;;;0.43;;
33786;SDS011;29742;51.540;9.358;2023-09-19T08:36:41;0.50;;;0.40;;
33786;SDS011;29742;51.540;9.358;2023-09-19T08:41:43;0.50;;;0.50;;
33786;SDS011;29742;51.540;9.358;2023-09-19T08:46:43;0.30;;;0.30;;
33786;SDS011;29742;51.540;9.358;2023-09-19T08:51:45;0.25;;;0.20;;
33786;SDS011;29742;51.540;9.358;2023-09-19T08:56:46;0.30;;;0.30;;
33786;SDS011;29742;51.540;9.358;2023-09-19T09:01:47;0.30;;;0.30;;
33786;SDS011;29742;51.540;9.358;2023-09-19T09:06:47;0.60;;;0.43;;
33786;SDS011;29742;51.540;9.358;2023-09-19T09:11:53;0.17;;;0.17;;
33786;SDS011;29742;51.540;9.358;2023-09-19T09:16:53;0.98;;;0.50;;
33786;SDS011;29742;51.540;9.358;2023-09-19T09:22:11;1.00;;;0.38;;
33786;SDS011;29742;51.540;9.358;2023-09-19T09:27:11;0.40;;;0.30;;
33786;SDS011;29742;51.540;9.358;2023-09-19T09:37:26;0.60;;;0.43;;
33786;SDS011;29742;51.540;9.358;2023-09-19T09:42:34;0.52;;;0.35;;
33786;SDS011;29742;51.540;9.358;2023-09-19T09:47:50;1.30;;;0.50;;
33786;SDS011;29742;51.540;9.358;2023-09-19T09:52:56;0.55;;;0.35;;
33786;SDS011;29742;51.540;9.358;2023-09-19T09:58:18;0.22;;;0.20;;
33786;SDS011;29742;51.540;9.358;2023-09-19T10:03:21;0.38;;;0.30;;
33786;SDS011;29742;51.540;9.358;2023-09-19T10:08:32;0.40;;;0.35;;
33786;SDS011;29742;51.540;9.358;2023-09-19T10:13:32;0.77;;;0.22;;
33786;SDS011;29742;51.540;9.358;2023-09-19T10:18:35;1.10;;;0.40;;
33786;SDS011;29742;51.540;9.358;2023-09-19T10:23:36;0.98;;;0.45;;
33786;SDS011;29742;51.540;9.358;2023-09-19T10:28:38;0.55;;;0.50;;
33786;SDS011;29742;51.540;9.358;2023-09-19T10:33:38;1.75;;;0.43;;
33786;SDS011;29742;51.540;9.358;2023-09-19T10:38:41;1.27;;;0.40;;
33786;SDS011;29742;51.540;9.358;2023-09-19T10:43:43;1.23;;;0.50;;
33786;SDS011;29742;51.540;9.358;2023-09-19T10:48:46;0.73;;;0.40;;
33786;SDS011;29742;51.540;9.358;2023-09-19T10:53:52;0.40;;;0.28;;
33786;SDS011;29742;51.540;9.358;2023-09-19T10:59:07;0.50;;;0.50;;
33786;SDS011;29742;51.540;9.358;2023-09-19T11:14:48;0.95;;;0.70;;
33786;SDS011;29742;51.540;9.358;2023-09-19T11:30:30;1.85;;;0.80;;
33786;SDS011;29742;51.540;9.358;2023-09-19T11:46:53;1.13;;;0.60;;
33786;SDS011;29742;51.540;9.358;2023-09-19T11:51:59;1.42;;;0.80;;
33786;SDS011;29742;51.540;9.358;2023-09-19T11:57:08;1.48;;;0.90;;
33786;SDS011;29742;51.540;9.358;2023-09-19T12:02:09;2.83;;;0.90;;
33786;SDS011;29742;51.540;9.358;2023-09-19T12:07:18;3.95;;;1.02;;
33786;SDS011;29742;51.540;9.358;2023-09-19T12:12:19;1.17;;;0.70;;
33786;SDS011;29742;51.540;9.358;2023-09-19T12:17:20;1.50;;;0.82;;
33786;SDS011;29742;51.540;9.358;2023-09-19T12:22:24;1.55;;;0.70;;
33786;SDS011;29742;51.540;9.358;2023-09-19T12:27:25;1.33;;;0.90;;
33786;SDS011;29742;51.540;9.358;2023-09-19T12:32:35;1.08;;;0.70;;
33786;SDS011;29742;51.540;9.358;2023-09-19T12:37:37;1.85;;;0.82;;
33786;SDS011;29742;51.540;9.358;2023-09-19T12:42:37;2.15;;;0.80;;
33786;SDS011;29742;51.540;9.358;2023-09-19T12:47:38;1.90;;;0.90;;
33786;SDS011;29742;51.540;9.358;2023-09-19T12:52:41;1.27;;;0.80;;
33786;SDS011;29742;51.540;9.358;2023-09-19T12:57:43;2.88;;;0.85;;
33786;SDS011;29742;51.540;9.358;2023-09-19T13:08:20;2.40;;;0.57;;
33786;SDS011;29742;51.540;9.358;2023-09-19T13:13:24;1.38;;;0.60;;
33786;SDS011;29742;51.540;9.358;2023-09-19T13:18:28;1.55;;;0.70;;
33786;SDS011;29742;51.540;9.358;2023-09-19T13:23:29;1.23;;;0.40;;
33786;SDS011;29742;51.540;9.358;2023-09-19T13:28:31;0.88;;;0.77;;
33786;SDS011;29742;51.540;9.358;2023-09-19T13:33:32;3.58;;;0.85;;
33786;SDS011;29742;51.540;9.358;2023-09-19T13:38:33;0.93;;;0.47;;
33786;SDS011;29742;51.540;9.358;2023-09-19T13:43:34;0.77;;;0.43;;
33786;SDS011;29742;51.540;9.358;2023-09-19T13:48:35;0.90;;;0.75;;
33786;SDS011;29742;51.540;9.358;2023-09-19T13:53:35;1.48;;;0.45;;
33786;SDS011;29742;51.540;9.358;2023-09-19T13:58:35;2.97;;;0.63;;
33786;SDS011;29742;51.540;9.358;2023-09-19T14:03:36;0.93;;;0.70;;
33786;SDS011;29742;51.540;9.358;2023-09-19T14:08:36;1.35;;;0.60;;
33786;SDS011;29742;51.540;9.358;2023-09-19T14:13:38;0.63;;;0.52;;
33786;SDS011;29742;51.540;9.358;2023-09-19T14:18:38;1.00;;;0.52;;
33786;SDS011;29742;51.540;9.358;2023-09-19T14:23:40;0.73;;;0.50;;
33786;SDS011;29742;51.540;9.358;2023-09-19T14:28:42;0.77;;;0.45;;
33786;SDS011;29742;51.540;9.358;2023-09-19T14:33:42;1.65;;;0.77;;
33786;SDS011;29742;51.540;9.358;2023-09-19T14:38:44;1.27;;;0.63;;
33786;SDS011;29742;51.540;9.358;2023-09-19T14:43:44;1.42;;;0.50;;
33786;SDS011;29742;51.540;9.358;2023-09-19T14:48:45;2.05;;;0.82;;
33786;SDS011;29742;51.540;9.358;2023-09-19T14:53:48;1.50;;;0.52;;
33786;SDS011;29742;51.540;9.358;2023-09-19T14:58:49;1.48;;;0.60;;
33786;SDS011;29742;51.540;9.358;2023-09-19T15:03:49;1.45;;;0.65;;
33786;SDS011;29742;51.540;9.358;2023-09-19T15:08:50;0.77;;;0.32;;
33786;SDS011;29742;51.540;9.358;2023-09-19T15:13:51;2.08;;;0.73;;
33786;SDS011;29742;51.540;9.358;2023-09-19T15:18:52;1.13;;;0.57;;
33786;SDS011;29742;51.540;9.358;2023-09-19T15:23:55;1.33;;;0.43;;
33786;SDS011;29742;51.540;9.358;2023-09-19T15:28:55;1.33;;;0.60;;
33786;SDS011;29742;51.540;9.358;2023-09-19T15:33:56;3.13;;;0.80;;
33786;SDS011;29742;51.540;9.358;2023-09-19T15:39:04;0.93;;;0.50;;
33786;SDS011;29742;51.540;9.358;2023-09-19T15:44:11;0.20;;;0.20;;
33786;SDS011;29742;51.540;9.358;2023-09-19T15:49:15;0.20;;;0.20;;
33786;SDS011;29742;51.540;9.358;2023-09-19T15:54:16;0.60;;;0.30;;
33786;SDS011;29742;51.540;9.358;2023-09-19T15:59:17;0.57;;;0.50;;
33786;SDS011;29742;51.540;9.358;2023-09-19T16:04:18;1.02;;;0.47;;
33786;SDS011;29742;51.540;9.358;2023-09-19T16:09:19;0.32;;;0.30;;
33786;SDS011;29742;51.540;9.358;2023-09-19T16:14:19;1.10;;;0.52;;
33786;SDS011;29742;51.540;9.358;2023-09-19T16:19:19;0.45;;;0.30;;
33786;SDS011;29742;51.540;9.358;2023-09-19T16:24:20;0.73;;;0.20;;
33786;SDS011;29742;51.540;9.358;2023-09-19T16:29:20;0.30;;;0.20;;
33786;SDS011;29742;51.540;9.358;2023-09-19T16:34:24;0.40;;;0.40;;
33786;SDS011;29742;51.540;9.358;2023-09-19T16:39:25;0.60;;;0.40;;
33786;SDS011;29742;51.540;9.358;2023-09-19T16:44:26;0.68;;;0.40;;
33786;SDS011;29742;51.540;9.358;2023-09-19T16:49:26;0.68;;;0.40;;
33786;SDS011;29742;51.540;9.358;2023-09-19T16:54:28;0.47;;;0.38;;
33786;SDS011;29742;51.540;9.358;2023-09-19T16:59:29;1.15;;;0.30;;
33786;SDS011;29742;51.540;9.358;2023-09-19T17:04:30;1.52;;;0.43;;
33786;SDS011;29742;51.540;9.358;2023-09-19T17:09:31;0.70;;;0.52;;
33786;SDS011;29742;51.540;9.358;2023-09-19T17:14:35;0.68;;;0.40;;
33786;SDS011;29742;51.540;9.358;2023-09-19T17:19:35;0.30;;;0.30;;
33786;SDS011;29742;51.540;9.358;2023-09-19T17:24:36;1.67;;;0.53;;
33786;SDS011;29742;51.540;9.358;2023-09-19T17:29:36;1.00;;;0.40;;
33786;SDS011;29742;51.540;9.358;2023-09-19T17:34:36;0.77;;;0.32;;
33786;SDS011;29742;51.540;9.358;2023-09-19T17:39:37;0.32;;;0.22;;
33786;SDS011;29742;51.540;9.358;2023-09-19T17:44:38;0.45;;;0.43;;
33786;SDS011;29742;51.540;9.358;2023-09-19T17:49:39;0.70;;;0.50;;
33786;SDS011;29742;51.540;9.358;2023-09-19T17:54:39;0.38;;;0.20;;
33786;SDS011;29742;51.540;9.358;2023-09-19T17:59:40;3.25;;;0.63;;
33786;SDS011;29742;51.540;9.358;2023-09-19T18:04:40;0.50;;;0.30;;
33786;SDS011;29742;51.540;9.358;2023-09-19T18:09:41;2.47;;;0.60;;
33786;SDS011;29742;51.540;9.358;2023-09-19T18:14:41;0.82;;;0.20;;
33786;SDS011;29742;51.540;9.358;2023-09-19T18:19:41;0.45;;;0.35;;
33786;SDS011;29742;51.540;9.358;2023-09-19T18:24:42;0.20;;;0.20;;
33786;SDS011;29742;51.540;9.358;2023-09-19T18:29:42;0.68;;;0.50;;
33786;SDS011;29742;51.540;9.358;2023-09-19T18:34:45;0.28;;;0.20;;
33786;SDS011;29742;51.540;9.358;2023-09-19T18:39:45;0.93;;;0.30;;
33786;SDS011;29742;51.540;9.358;2023-09-19T18:44:46;0.22;;;0.20;;
33786;SDS011;29742;51.540;9.358;2023-09-19T18:49:49;0.67;;;0.37;;
33786;SDS011;29742;51.540;9.358;2023-09-19T18:54:49;0.63;;;0.40;;
33786;SDS011;29742;51.540;9.358;2023-09-19T18:59:50;0.83;;;0.30;;
33786;SDS011;29742;51.540;9.358;2023-09-19T19:04:50;0.40;;;0.30;;
33786;SDS011;29742;51.540;9.358;2023-09-19T19:09:51;0.88;;;0.40;;
33786;SDS011;29742;51.540;9.358;2023-09-19T19:14:52;0.40;;;0.32;;
33786;SDS011;29742;51.540;9.358;2023-09-19T19:19:53;0.70;;;0.52;;
33786;SDS011;29742;51.540;9.358;2023-09-19T19:24:54;0.30;;;0.30;;
33786;SDS011;29742;51.540;9.358;2023-09-19T19:29:56;0.57;;;0.28;;
33786;SDS011;29742;51.540;9.358;2023-09-19T19:34:56;0.60;;;0.30;;
33786;SDS011;29742;51.540;9.358;2023-09-19T19:39:56;0.25;;;0.17;;
33786;SDS011;29742;51.540;9.358;2023-09-19T19:44:57;0.60;;;0.20;;
33786;SDS011;29742;51.540;9.358;2023-09-19T19:49:58;0.90;;;0.40;;
33786;SDS011;29742;51.540;9.358;2023-09-19T19:54:59;0.50;;;0.20;;
33786;SDS011;29742;51.540;9.358;2023-09-19T19:59:59;0.20;;;0.20;;
33786;SDS011;29742;51.540;9.358;2023-09-19T20:05:00;0.45;;;0.20;;
33786;SDS011;29742;51.540;9.358;2023-09-19T20:10:06;0.40;;;0.30;;
33786;SDS011;29742;51.540;9.358;2023-09-19T20:15:07;0.40;;;0.20;;
33786;SDS011;29742;51.540;9.358;2023-09-19T20:20:09;0.30;;;0.10;;
33786;SDS011;29742;51.540;9.358;2023-09-19T20:25:18;0.32;;;0.20;;
33786;SDS011;29742;51.540;9.358;2023-09-19T20:30:18;0.10;;;0.10;;
33786;SDS011;29742;51.540;9.358;2023-09-19T20:35:19;0.20;;;0.10;;
33786;SDS011;29742;51.540;9.358;2023-09-19T20:40:19;0.20;;;0.10;;
33786;SDS011;29742;51.540;9.358;2023-09-19T20:45:22;0.43;;;0.17;;
33786;SDS011;29742;51.540;9.358;2023-09-19T20:50:22;0.20;;;0.15;;
33786;SDS011;29742;51.540;9.358;2023-09-19T20:55:23;0.30;;;0.15;;
33786;SDS011;29742;51.540;9.358;2023-09-19T21:00:24;0.35;;;0.25;;
33786;SDS011;29742;51.540;9.358;2023-09-19T21:05:24;0.30;;;0.10;;
33786;SDS011;29742;51.540;9.358;2023-09-19T21:10:28;0.20;;;0.20;;
33786;SDS011;29742;51.540;9.358;2023-09-19T21:15:28;0.70;;;0.20;;
33786;SDS011;29742;51.540;9.358;2023-09-19T21:20:29;0.10;;;0.10;;
33786;SDS011;29742;51.540;9.358;2023-09-19T21:25:29;0.20;;;0.15;;
33786;SDS011;29742;51.540;9.358;2023-09-19T21:30:31;0.20;;;0.10;;
33786;SDS011;29742;51.540;9.358;2023-09-19T21:35:32;0.22;;;0.20;;
33786;SDS011;29742;51.540;9.358;2023-09-19T21:40:32;0.15;;;0.10;;
33786;SDS011;29742;51.540;9.358;2023-09-19T21:45:33;0.70;;;0.30;;
33786;SDS011;29742;51.540;9.358;2023-09-19T21:50:34;0.30;;;0.10;;
33786;SDS011;29742;51.540;9.358;2023-09-19T21:55:36;0.32;;;0.17;;
33786;SDS011;29742;51.540;9.358;2023-09-19T22:00:37;0.55;;;0.10;;
33786;SDS011;29742;51.540;9.358;2023-09-19T22:05:45;0.10;;;0.10;;
33786;SDS011;29742;51.540;9.358;2023-09-19T22:10:46;0.32;;;0.20;;
33786;SDS011;29742;51.540;9.358;2023-09-19T22:15:48;0.30;;;0.13;;
33786;SDS011;29742;51.540;9.358;2023-09-19T22:20:48;0.22;;;0.20;;
33786;SDS011;29742;51.540;9.358;2023-09-19T22:25:49;0.10;;;0.10;;
33786;SDS011;29742;51.540;9.358;2023-09-19T22:30:51;0.30;;;0.20;;
33786;SDS011;29742;51.540;9.358;2023-09-19T22:35:51;0.40;;;0.30;;
33786;SDS011;29742;51.540;9.358;2023-09-19T22:40:52;0.30;;;0.20;;
33786;SDS011;29742;51.540;9.358;2023-09-19T22:45:52;0.20;;;0.20;;
33786;SDS011;29742;51.540;9.358;2023-09-19T22:50:53;0.47;;;0.15;;
33786;SDS011;29742;51.540;9.358;2023-09-19T22:55:59;0.30;;;0.30;;
33786;SDS011;29742;51.540;9.358;2023-09-19T23:01:11;1.02;;;0.20;;
33786;SDS011;29742;51.540;9.358;2023-09-19T23:06:28;0.20;;;0.15;;
33786;SDS011;29742;51.540;9.358;2023-09-19T23:11:29;0.28;;;0.10;;
33786;SDS011;29742;51.540;9.358;2023-09-19T23:16:32;0.20;;;0.20;;
33786;SDS011;29742;51.540;9.358;2023-09-19T23:21:35;0.60;;;0.40;;
33786;SDS011;29742;51.540;9.358;2023-09-19T23:26:39;0.20;;;0.20;;
33786;SDS011;29742;51.540;9.358;2023-09-19T23:31:44;0.65;;;0.45;;
33786;SDS011;29742;51.540;9.358;2023-09-19T23:36:45;0.40;;;0.30;;
33786;SDS011;29742;51.540;9.358;2023-09-19T23:41:46;0.20;;;0.10;;
33786;SDS011;29742;51.540;9.358;2023-09-19T23:46:46;0.20;;;0.10;;
33786;SDS011;29742;51.540;9.358;2023-09-19T23:51:54;0.22;;;0.10;;
33786;SDS011;29742;51.540;9.358;2023-09-19T23:56:56;0.10;;;0.10;;
